createdAt,value
2023-05-09T00:00:21.696Z,62.50
2023-05-09T00:02:51.664Z,63.97
2023-05-09T00:05:21.434Z,65.13
2023-05-09T00:07:50.490Z,63.10
2023-05-09T00:10:19.470Z,65.10
2023-05-09T00:12:49.684Z,65.27
2023-05-09T00:15:19.232Z,79.57
2023-05-09T00:17:50.853Z,77.57
2023-05-09T00:20:20.387Z,76.97
2023-05-09T00:22:49.310Z,71.27
2023-05-09T00:25:18.361Z,68.40
2023-05-09T00:27:47.360Z,65.00
2023-05-09T00:30:16.428Z,55.97
2023-05-09T00:32:45.564Z,55.97
2023-05-09T00:35:17.316Z,52.37
2023-05-09T00:37:46.734Z,52.63
2023-05-09T00:40:16.096Z,52.30
2023-05-09T00:42:44.943Z,51.37
2023-05-09T00:45:14.048Z,49.90
2023-05-09T00:48:01.485Z,52.60
2023-05-09T00:50:32.944Z,52.27
2023-05-09T00:53:02.007Z,52.37
2023-05-09T00:55:31.387Z,52.17
2023-05-09T00:58:00.398Z,53.30
2023-05-09T01:00:29.571Z,51.60
2023-05-09T01:02:58.752Z,51.17
2023-05-09T01:05:39.860Z,49.43
2023-05-09T01:08:14.729Z,49.20
2023-05-09T01:10:49.831Z,48.53
2023-05-09T01:13:28.637Z,47.27
2023-05-09T01:16:06.273Z,48.47
2023-05-09T01:18:44.737Z,49.80
2023-05-09T01:21:19.819Z,48.93
2023-05-09T01:24:19.516Z,50.07
2023-05-09T01:27:03.762Z,51.00
2023-05-09T01:29:46.189Z,48.50
2023-05-09T01:32:19.486Z,49.40
2023-05-09T01:35:10.108Z,51.60
2023-05-09T01:37:43.700Z,49.87
2023-05-09T01:40:16.828Z,52.90
2023-05-09T01:42:50.178Z,52.60
2023-05-09T01:45:40.318Z,52.67
2023-05-09T01:48:11.391Z,51.33
2023-05-09T01:50:42.933Z,49.63
2023-05-09T01:53:13.650Z,50.10
2023-05-09T01:55:44.790Z,47.10
2023-05-09T01:58:16.459Z,49.07
2023-05-09T02:00:48.386Z,50.87
2023-05-09T02:03:17.827Z,51.40
2023-05-09T02:05:49.194Z,50.53
2023-05-09T02:08:22.290Z,49.47
2023-05-09T02:11:09.849Z,49.67
2023-05-09T02:13:38.892Z,51.77
2023-05-09T02:16:10.493Z,52.47
2023-05-09T02:18:39.873Z,54.70
2023-05-09T02:21:09.886Z,55.43
2023-05-09T02:23:40.423Z,58.27
2023-05-09T02:26:10.410Z,71.40
2023-05-09T02:28:40.605Z,67.30
2023-05-09T02:31:12.984Z,72.67
2023-05-09T02:33:44.467Z,71.47
2023-05-09T02:36:15.647Z,76.90
2023-05-09T02:38:45.707Z,74.33
2023-05-09T02:41:15.547Z,80.30
2023-05-09T02:43:44.648Z,82.07
2023-05-09T02:46:15.121Z,77.20
2023-05-09T02:48:44.128Z,76.53
2023-05-09T02:51:13.083Z,110.07
2023-05-09T02:53:41.882Z,132.57
2023-05-09T02:56:11.140Z,172.87
2023-05-09T02:58:40.164Z,192.37
2023-05-09T03:01:09.111Z,170.83
2023-05-09T03:03:40.262Z,101.13
2023-05-09T03:06:09.896Z,63.30
2023-05-09T03:08:38.863Z,60.07
2023-05-09T03:11:07.857Z,60.33
2023-05-09T03:13:41.446Z,55.93
2023-05-09T03:16:10.796Z,57.40
2023-05-09T03:18:41.160Z,57.73
2023-05-09T03:21:11.757Z,60.37
2023-05-09T03:23:41.354Z,63.73
2023-05-09T03:26:10.882Z,57.83
2023-05-09T03:28:40.056Z,52.07
2023-05-09T03:31:09.197Z,59.90
2023-05-09T03:33:38.169Z,103.43
2023-05-09T03:36:09.186Z,74.90
2023-05-09T03:38:39.513Z,47.63
2023-05-09T03:41:09.254Z,50.23
2023-05-09T03:43:38.339Z,45.73
2023-05-09T03:46:07.523Z,49.77
2023-05-09T03:48:37.351Z,47.23
2023-05-09T03:51:08.846Z,47.60
2023-05-09T03:53:41.306Z,46.33
2023-05-09T03:56:11.404Z,45.47
2023-05-09T03:58:47.169Z,44.83
2023-05-09T04:01:17.018Z,46.23
2023-05-09T04:03:47.138Z,45.27
2023-05-09T04:06:18.866Z,44.47
2023-05-09T04:08:47.884Z,45.10
2023-05-09T04:11:16.879Z,43.20
2023-05-09T04:13:48.451Z,43.07
2023-05-09T04:16:44.082Z,45.73
2023-05-09T04:19:13.192Z,42.53
2023-05-09T04:21:43.459Z,41.87
2023-05-09T04:24:12.483Z,80.07
2023-05-09T04:26:46.901Z,57.53
2023-05-09T04:29:19.256Z,58.23
2023-05-09T04:31:53.362Z,83.77
2023-05-09T04:34:26.579Z,172.83
2023-05-09T04:36:58.634Z,156.47
2023-05-09T04:39:46.199Z,152.50
2023-05-09T04:42:21.962Z,178.33
2023-05-09T04:44:52.288Z,165.03
2023-05-09T04:47:23.531Z,95.43
2023-05-09T04:49:52.894Z,60.13
2023-05-09T04:52:23.466Z,41.93
2023-05-09T04:54:52.442Z,35.13
2023-05-09T04:57:24.036Z,34.53
2023-05-09T04:59:57.979Z,38.90
2023-05-09T05:02:27.284Z,38.33
2023-05-09T05:05:10.218Z,40.03
2023-05-09T05:07:44.654Z,41.03
2023-05-09T05:10:18.382Z,36.77
2023-05-09T05:13:06.125Z,33.07
2023-05-09T05:15:36.099Z,30.63
2023-05-09T05:18:06.354Z,30.80
2023-05-09T05:20:37.465Z,32.83
2023-05-09T05:23:08.186Z,34.40
2023-05-09T05:25:37.203Z,33.73
2023-05-09T05:28:06.392Z,40.53
2023-05-09T05:30:35.678Z,30.60
2023-05-09T05:33:04.990Z,41.50
2023-05-09T05:35:33.988Z,39.73
2023-05-09T05:38:03.111Z,44.53
2023-05-09T05:40:33.521Z,50.50
2023-05-09T05:43:05.649Z,59.97
2023-05-09T05:45:36.213Z,40.97
2023-05-09T05:48:07.763Z,38.07
2023-05-09T05:50:37.555Z,62.03
2023-05-09T05:53:06.888Z,43.53
2023-05-09T05:55:37.606Z,35.63
2023-05-09T05:58:07.822Z,41.77
2023-05-09T06:00:37.265Z,41.97
2023-05-09T06:03:08.920Z,31.60
2023-05-09T06:05:49.169Z,64.77
2023-05-09T06:08:18.597Z,30.90
2023-05-09T06:10:48.928Z,95.03
2023-05-09T06:13:18.135Z,36.13
2023-05-09T06:15:52.404Z,26.00
2023-05-09T06:18:21.375Z,12.00
2023-05-09T06:20:50.214Z,9.87
2023-05-09T06:23:22.460Z,12.27
2023-05-09T06:25:53.346Z,12.87
2023-05-09T06:28:22.339Z,12.23
2023-05-09T06:30:51.208Z,8.70
2023-05-09T06:33:20.022Z,9.57
2023-05-09T06:35:48.964Z,10.67
2023-05-09T06:38:17.826Z,11.37
2023-05-09T06:40:46.613Z,10.20
2023-05-09T06:43:16.961Z,9.07
2023-05-09T06:45:45.824Z,8.40
2023-05-09T06:48:14.719Z,8.77
2023-05-09T06:50:43.653Z,10.17
2023-05-09T06:53:12.552Z,8.70
2023-05-09T06:55:41.826Z,9.53
2023-05-09T06:58:11.670Z,9.60
2023-05-09T07:00:42.129Z,9.90
2023-05-09T07:03:11.907Z,8.87
2023-05-09T07:05:40.868Z,8.30
2023-05-09T07:08:09.733Z,9.20
2023-05-09T07:10:39.079Z,9.47
2023-05-09T07:13:08.097Z,8.40
2023-05-09T07:15:41.786Z,6.37
2023-05-09T07:18:12.809Z,6.87
2023-05-09T07:20:41.965Z,6.97
2023-05-09T07:23:10.844Z,7.53
2023-05-09T07:25:39.828Z,6.80
2023-05-09T07:28:08.813Z,6.97
2023-05-09T07:30:37.690Z,6.80
2023-05-09T07:33:06.948Z,7.07
2023-05-09T07:35:37.421Z,7.73
2023-05-09T07:38:06.810Z,6.93
2023-05-09T07:40:36.633Z,6.83
2023-05-09T07:43:05.705Z,7.70
2023-05-09T07:45:34.879Z,7.07
2023-05-09T07:48:03.996Z,19.80
2023-05-09T07:50:32.964Z,13.07
2023-05-09T07:53:03.344Z,11.23
2023-05-09T07:55:32.502Z,8.97
2023-05-09T07:58:01.357Z,10.90
2023-05-09T08:00:30.184Z,15.10
2023-05-09T08:03:00.037Z,21.40
2023-05-09T08:05:29.333Z,28.90
2023-05-09T08:07:58.213Z,24.87
2023-05-09T08:10:30.821Z,16.93
2023-05-09T08:13:00.058Z,33.17
2023-05-09T08:15:28.969Z,32.83
2023-05-09T08:17:57.826Z,17.40
2023-05-09T08:20:28.147Z,15.90
2023-05-09T08:22:57.275Z,37.57
2023-05-09T08:25:27.628Z,25.30
2023-05-09T08:27:56.498Z,39.53
2023-05-09T08:30:25.570Z,17.10
2023-05-09T08:32:54.506Z,30.23
2023-05-09T08:35:27.326Z,27.33
2023-05-09T08:37:57.219Z,21.37
2023-05-09T08:40:28.082Z,15.90
2023-05-09T08:42:57.784Z,24.07
2023-05-09T08:45:30.811Z,26.53
2023-05-09T08:48:01.212Z,12.70
2023-05-09T08:50:30.775Z,13.90
2023-05-09T08:53:09.652Z,18.23
2023-05-09T08:55:41.474Z,15.30
2023-05-09T08:58:11.145Z,13.90
2023-05-09T09:00:40.884Z,15.53
2023-05-09T09:03:09.954Z,8.50
2023-05-09T09:05:42.402Z,12.07
2023-05-09T09:08:12.866Z,10.27
2023-05-09T09:10:47.506Z,10.47
2023-05-09T09:13:18.323Z,9.00
2023-05-09T09:15:48.307Z,8.73
2023-05-09T09:18:24.022Z,8.97
2023-05-09T09:20:58.074Z,9.17
2023-05-09T09:23:29.269Z,14.77
2023-05-09T09:26:04.974Z,58.20
2023-05-09T09:28:34.973Z,33.10
2023-05-09T09:31:04.053Z,18.33
2023-05-09T09:33:33.007Z,19.10
2023-05-09T09:36:02.029Z,17.17
2023-05-09T09:38:41.585Z,13.13
2023-05-09T09:41:14.213Z,14.50
2023-05-09T09:43:47.565Z,16.40
2023-05-09T09:46:18.623Z,19.43
2023-05-09T09:48:52.935Z,17.97
2023-05-09T09:51:23.163Z,17.23
2023-05-09T09:53:53.001Z,23.53
2023-05-09T09:56:23.804Z,21.67
2023-05-09T09:59:09.336Z,17.90
2023-05-09T10:01:54.371Z,10.97
2023-05-09T10:04:23.553Z,16.40
2023-05-09T10:06:59.929Z,15.53
2023-05-09T10:09:29.482Z,14.77
2023-05-09T10:12:05.049Z,31.07
2023-05-09T10:14:36.040Z,14.47
2023-05-09T10:17:06.812Z,14.47
2023-05-09T10:19:37.352Z,10.67
2023-05-09T10:22:10.304Z,19.40
2023-05-09T10:24:46.370Z,17.60
2023-05-09T10:27:19.566Z,16.70
2023-05-09T10:29:52.839Z,10.40
2023-05-09T10:32:29.086Z,10.80
2023-05-09T10:35:08.320Z,9.37
2023-05-09T10:37:38.179Z,8.60
2023-05-09T10:40:08.288Z,9.90
2023-05-09T10:42:38.760Z,11.47
2023-05-09T10:45:10.564Z,18.13
2023-05-09T10:47:59.442Z,9.47
2023-05-09T10:50:28.777Z,9.87
2023-05-09T10:53:14.264Z,11.50
2023-05-09T10:55:51.735Z,10.43
2023-05-09T10:58:23.680Z,12.00
2023-05-09T11:00:55.373Z,10.43
2023-05-09T11:03:27.209Z,11.63
2023-05-09T11:05:57.862Z,12.70
2023-05-09T11:08:27.818Z,14.10
2023-05-09T11:10:57.698Z,7.57
2023-05-09T11:13:33.061Z,7.93
2023-05-09T11:16:11.930Z,9.33
2023-05-09T11:18:54.881Z,11.43
2023-05-09T11:21:23.986Z,11.50
2023-05-09T11:23:55.249Z,8.70
2023-05-09T11:26:30.075Z,8.07
2023-05-09T11:29:02.962Z,7.47
2023-05-09T11:31:32.288Z,7.57
2023-05-09T11:34:05.077Z,9.30
2023-05-09T11:36:34.222Z,7.37
2023-05-09T11:39:06.574Z,7.40
2023-05-09T11:41:42.831Z,7.00
2023-05-09T11:44:18.491Z,6.60
2023-05-09T11:46:48.143Z,8.17
2023-05-09T11:49:19.563Z,8.53
2023-05-09T11:51:48.720Z,7.43
2023-05-09T11:54:19.694Z,10.50
2023-05-09T11:56:48.757Z,7.30
2023-05-09T11:59:20.555Z,10.70
2023-05-09T12:01:49.898Z,8.63
2023-05-09T12:04:19.054Z,9.27
2023-05-09T12:06:49.870Z,10.37
2023-05-09T12:09:20.168Z,9.23
2023-05-09T12:11:51.951Z,8.20
2023-05-09T12:14:32.805Z,6.93
2023-05-09T12:17:02.171Z,7.73
2023-05-09T12:19:31.367Z,6.93
2023-05-09T12:22:01.460Z,8.60
2023-05-09T12:24:31.950Z,6.17
2023-05-09T12:27:02.202Z,8.40
2023-05-09T12:29:33.309Z,9.43
2023-05-09T12:32:02.457Z,6.30
2023-05-09T12:34:32.409Z,8.40
2023-05-09T12:37:20.749Z,6.20
2023-05-09T12:40:10.551Z,6.90
2023-05-09T12:42:44.846Z,7.10
2023-05-09T12:45:15.923Z,9.97
2023-05-09T12:47:50.437Z,9.83
2023-05-09T12:50:21.640Z,7.47
2023-05-09T12:53:10.910Z,7.20
2023-05-09T12:55:42.624Z,6.23
2023-05-09T12:58:22.219Z,6.33
2023-05-09T13:00:53.161Z,6.23
2023-05-09T13:03:26.346Z,6.40
2023-05-09T13:05:59.924Z,6.60
2023-05-09T13:08:29.794Z,7.20
2023-05-09T13:11:11.939Z,7.30
2023-05-09T13:13:44.380Z,6.00
2023-05-09T13:16:17.357Z,7.40
2023-05-09T13:18:46.789Z,6.73
2023-05-09T13:21:17.147Z,7.27
2023-05-09T13:23:46.289Z,7.33
2023-05-09T13:26:15.286Z,6.33
2023-05-09T13:28:44.187Z,7.17
2023-05-09T13:31:14.644Z,7.60
2023-05-09T13:33:43.711Z,7.33
2023-05-09T13:36:12.840Z,6.83
2023-05-09T13:38:42.250Z,7.23
2023-05-09T13:41:11.657Z,6.43
2023-05-09T13:43:42.706Z,7.47
2023-05-09T13:46:11.745Z,7.97
2023-05-09T13:48:43.196Z,6.80
2023-05-09T13:51:14.591Z,9.47
2023-05-09T13:53:43.493Z,7.33
2023-05-09T13:56:12.415Z,6.77
2023-05-09T13:58:41.293Z,7.10
2023-05-09T14:01:10.636Z,6.90
2023-05-09T14:03:39.699Z,6.80
2023-05-09T14:06:10.739Z,7.03
2023-05-09T14:08:40.052Z,7.17
2023-05-09T14:11:12.335Z,8.50
2023-05-09T14:13:42.371Z,7.13
2023-05-09T14:16:15.025Z,9.03
2023-05-09T14:18:44.045Z,7.60
2023-05-09T14:21:14.911Z,7.57
2023-05-09T14:23:44.270Z,6.77
2023-05-09T14:26:13.915Z,6.73
2023-05-09T14:28:42.954Z,8.13
2023-05-09T14:31:12.068Z,6.80
2023-05-09T14:33:41.617Z,7.27
2023-05-09T14:36:11.174Z,7.37
2023-05-09T14:38:42.933Z,7.20
2023-05-09T14:41:12.807Z,9.47
2023-05-09T14:43:41.906Z,7.20
2023-05-09T14:46:10.856Z,6.73
2023-05-09T14:48:39.852Z,7.33
2023-05-09T14:51:10.110Z,7.43
2023-05-09T14:53:42.160Z,7.40
2023-05-09T14:56:12.085Z,6.73
2023-05-09T14:58:41.098Z,6.97
2023-05-09T15:01:10.274Z,6.60
2023-05-09T15:03:39.603Z,7.23
2023-05-09T15:06:08.677Z,7.13
2023-05-09T15:08:37.699Z,6.93
2023-05-09T15:11:28.770Z,7.97
2023-05-09T15:14:04.589Z,7.10
2023-05-09T15:16:34.254Z,8.77
2023-05-09T15:19:05.123Z,8.67
2023-05-09T15:21:35.252Z,7.70
2023-05-09T15:24:04.820Z,8.63
2023-05-09T15:26:35.270Z,8.97
2023-05-09T15:29:04.313Z,7.70
2023-05-09T15:31:34.781Z,11.13
2023-05-09T15:34:03.816Z,11.47
2023-05-09T15:36:33.975Z,8.80
2023-05-09T15:39:05.481Z,12.03
2023-05-09T15:41:36.180Z,12.33
2023-05-09T15:44:05.439Z,11.47
2023-05-09T15:46:34.863Z,11.70
2023-05-09T15:49:03.965Z,10.07
2023-05-09T15:51:32.940Z,8.90
2023-05-09T15:54:01.966Z,9.40
2023-05-09T15:56:31.597Z,8.50
2023-05-09T15:59:02.569Z,9.03
2023-05-09T16:01:33.297Z,10.27
2023-05-09T16:04:05.519Z,11.17
2023-05-09T16:06:34.780Z,9.53
2023-05-09T16:09:04.649Z,12.30
2023-05-09T16:11:33.858Z,10.73
2023-05-09T16:14:05.404Z,10.67
2023-05-09T16:16:34.736Z,8.87
2023-05-09T16:22:08.681Z,8.97
2023-05-09T16:24:37.908Z,11.00
2023-05-09T16:27:07.007Z,9.73
2023-05-09T16:29:37.484Z,8.03
2023-05-09T16:32:07.229Z,11.53
2023-05-09T16:34:36.803Z,15.90
2023-05-09T16:37:05.800Z,20.00
2023-05-09T16:39:34.997Z,15.40
2023-05-09T16:42:05.571Z,10.50
2023-05-09T16:44:34.491Z,8.70
2023-05-09T16:47:05.057Z,13.17
2023-05-09T16:49:34.257Z,9.30
2023-05-09T16:52:03.997Z,15.73
2023-05-09T16:54:33.092Z,18.47
2023-05-09T16:57:02.220Z,14.67
2023-05-09T16:59:31.169Z,9.73
2023-05-09T17:02:00.558Z,10.30
2023-05-09T17:04:31.007Z,16.50
2023-05-09T17:07:01.926Z,95.77
2023-05-09T17:09:31.018Z,51.00
2023-05-09T17:12:01.139Z,26.47
2023-05-09T17:14:30.128Z,56.73
2023-05-09T17:16:59.160Z,52.33
2023-05-09T17:19:29.628Z,54.10
2023-05-09T17:21:59.530Z,95.53
2023-05-09T17:24:28.556Z,23.87
2023-05-09T17:26:57.540Z,21.63
2023-05-09T17:29:29.309Z,25.20
2023-05-09T17:32:00.752Z,29.70
2023-05-09T17:34:32.402Z,21.83
2023-05-09T17:37:02.508Z,40.70
2023-05-09T17:39:38.035Z,13.77
2023-05-09T17:42:08.094Z,17.27
2023-05-09T17:44:37.820Z,14.07
2023-05-09T17:47:07.128Z,8.80
2023-05-09T17:49:37.923Z,28.77
2023-05-09T17:52:07.108Z,17.10
2023-05-09T17:54:36.548Z,15.73
2023-05-09T17:57:05.832Z,13.00
2023-05-09T17:59:34.754Z,36.77
2023-05-09T18:02:03.800Z,36.80
2023-05-09T18:04:34.529Z,25.53
2023-05-09T18:07:05.067Z,24.80
2023-05-09T18:09:34.054Z,45.93
2023-05-09T18:12:02.968Z,10.43
2023-05-09T18:14:31.812Z,68.47
2023-05-09T18:17:19.177Z,74.93
2023-05-09T18:19:48.153Z,93.20
2023-05-09T18:22:19.520Z,73.90
2023-05-09T18:24:48.660Z,28.00
2023-05-09T18:27:18.045Z,43.93
2023-05-09T18:29:47.968Z,28.60
2023-05-09T18:32:17.827Z,89.83
2023-05-09T18:34:48.638Z,61.93
2023-05-09T18:37:19.279Z,49.90
2023-05-09T18:39:49.381Z,50.73
2023-05-09T18:42:18.404Z,89.77
2023-05-09T18:44:47.372Z,72.00
2023-05-09T18:47:16.782Z,81.93
2023-05-09T18:49:45.802Z,59.07
2023-05-09T18:52:15.518Z,73.60
2023-05-09T18:54:46.328Z,58.43
2023-05-09T18:57:21.954Z,66.47
2023-05-09T18:59:52.495Z,65.93
2023-05-09T19:02:40.602Z,80.00
2023-05-09T19:05:11.554Z,114.77
2023-05-09T19:07:41.371Z,83.30
2023-05-09T19:10:15.115Z,69.13
2023-05-09T19:12:44.767Z,55.30
2023-05-09T19:15:14.736Z,105.37
2023-05-09T19:17:46.714Z,77.23
2023-05-09T19:20:34.968Z,52.97
2023-05-09T19:23:03.837Z,97.80
2023-05-09T19:25:34.323Z,58.90
2023-05-09T19:28:03.921Z,70.97
2023-05-09T19:30:32.922Z,59.97
2023-05-09T19:33:02.120Z,66.10
2023-05-09T19:35:31.307Z,94.80
2023-05-09T19:38:00.627Z,50.17
2023-05-09T19:40:29.877Z,40.60
2023-05-09T19:43:01.182Z,81.67
2023-05-09T19:45:30.491Z,92.70
2023-05-09T19:47:59.570Z,49.30
2023-05-09T19:50:28.731Z,51.03
2023-05-09T19:52:58.045Z,17.83
2023-05-09T19:55:27.328Z,47.83
2023-05-09T19:57:56.262Z,90.67
2023-05-09T20:00:27.053Z,117.33
2023-05-09T20:02:56.175Z,76.30
2023-05-09T20:05:25.368Z,88.77
2023-05-09T20:07:54.364Z,68.37
2023-05-09T20:10:23.402Z,38.73
2023-05-09T20:12:53.170Z,86.73
2023-05-09T20:15:22.282Z,97.70
2023-05-09T20:17:53.155Z,79.03
2023-05-09T20:20:22.526Z,79.23
2023-05-09T20:22:51.608Z,94.30
2023-05-09T20:25:20.558Z,100.27
2023-05-09T20:27:49.497Z,67.67
2023-05-09T20:30:18.575Z,48.63
2023-05-09T20:32:47.475Z,32.33
2023-05-09T20:35:24.049Z,45.27
2023-05-09T20:37:53.065Z,37.20
2023-05-09T20:40:22.190Z,21.93
2023-05-09T20:42:52.856Z,87.00
2023-05-09T20:45:22.028Z,98.53
2023-05-09T20:47:50.924Z,55.03
2023-05-09T20:50:21.543Z,41.80
2023-05-09T20:53:09.589Z,79.43
2023-05-09T20:55:38.652Z,68.30
2023-05-09T20:58:07.757Z,119.77
2023-05-09T21:00:36.878Z,123.10
2023-05-09T21:03:06.092Z,52.57
2023-05-09T21:05:37.197Z,39.63
2023-05-09T21:08:06.590Z,45.43
2023-05-09T21:10:35.552Z,9.17
2023-05-09T21:13:04.856Z,86.70
2023-05-09T21:15:34.327Z,125.67
2023-05-09T21:18:03.271Z,76.60
2023-05-09T21:20:32.248Z,69.77
2023-05-09T21:23:02.656Z,24.87
2023-05-09T21:25:31.626Z,84.20
2023-05-09T21:28:00.599Z,94.40
2023-05-09T21:30:30.466Z,75.13
2023-05-09T21:32:59.670Z,56.90
2023-05-09T21:35:28.557Z,12.63
2023-05-09T21:37:57.402Z,5.67
2023-05-09T21:40:27.874Z,7.10
2023-05-09T21:42:56.916Z,10.17
2023-05-09T21:45:25.977Z,6.07
2023-05-09T21:47:54.934Z,6.60
2023-05-09T21:50:24.138Z,24.20
2023-05-09T21:52:53.427Z,10.63
2023-05-09T21:55:24.105Z,15.23
2023-05-09T21:57:54.650Z,79.30
2023-05-09T22:00:42.016Z,80.17
2023-05-09T22:03:11.095Z,87.73
2023-05-09T22:05:40.118Z,79.63
2023-05-09T22:08:09.372Z,48.40
2023-05-09T22:10:38.932Z,54.97
2023-05-09T22:13:10.173Z,55.70
2023-05-09T22:15:39.510Z,55.63
2023-05-09T22:18:08.919Z,82.50
2023-05-09T22:20:37.888Z,65.77
2023-05-09T22:23:10.015Z,75.40
2023-05-09T22:25:38.917Z,66.70
2023-05-09T22:28:09.490Z,65.53
2023-05-09T22:30:38.960Z,38.20
2023-05-09T22:33:07.948Z,25.77
2023-05-09T22:35:36.881Z,63.73
2023-05-09T22:38:05.831Z,78.00
2023-05-09T22:40:34.895Z,80.60
2023-05-09T22:43:03.902Z,82.60
2023-05-09T22:45:34.341Z,67.60
2023-05-09T22:48:03.875Z,40.70
2023-05-09T22:50:32.874Z,31.60
2023-05-09T22:53:01.827Z,60.27
2023-05-09T22:55:30.826Z,56.70
2023-05-09T22:57:59.766Z,49.63
2023-05-09T23:00:29.147Z,63.57
2023-05-09T23:03:00.573Z,76.27
2023-05-09T23:05:29.790Z,44.40
2023-05-09T23:07:58.827Z,13.80
2023-05-09T23:10:29.622Z,32.80
2023-05-09T23:12:58.649Z,16.30
2023-05-09T23:15:27.816Z,32.67
2023-05-09T23:17:56.798Z,46.63
2023-05-09T23:20:27.464Z,53.87
2023-05-09T23:22:56.638Z,86.07
2023-05-09T23:25:26.222Z,122.70
2023-05-09T23:27:55.317Z,63.53
2023-05-09T23:30:24.271Z,90.47
2023-05-09T23:32:53.267Z,58.77
2023-05-09T23:35:22.521Z,39.93
2023-05-09T23:37:52.822Z,32.20
2023-05-09T23:40:22.080Z,24.03
2023-05-09T23:42:51.021Z,47.80
2023-05-09T23:45:20.107Z,55.80
2023-05-09T23:47:49.201Z,25.00
2023-05-09T23:50:18.552Z,27.37
2023-05-09T23:52:49.504Z,29.67
2023-05-09T23:55:20.059Z,17.07
2023-05-09T23:57:49.351Z,27.57
